sensor_id;sensor_type;location;lat;lon;timestamp;temperature;humidity
27631;DHT22;15045;48.848;8.140;2022-07-24T00:00:40;22.60;95.10
27631;DHT22;15045;48.848;8.140;2022-07-24T00:03:06;21.00;95.10
27631;DHT22;15045;48.848;8.140;2022-07-24T00:05:32;21.00;95.40
27631;DHT22;15045;48.848;8.140;2022-07-24T00:07:58;22.60;96.20
27631;DHT22;15045;48.848;8.140;2022-07-24T00:10:24;20.70;96.10
27631;DHT22;15045;48.848;8.140;2022-07-24T00:12:49;20.60;96.00
27631;DHT22;15045;48.848;8.140;2022-07-24T00:15:15;20.60;96.10
27631;DHT22;15045;48.848;8.140;2022-07-24T00:17:41;20.60;96.30
27631;DHT22;15045;48.848;8.140;2022-07-24T00:20:07;20.60;96.10
27631;DHT22;15045;48.848;8.140;2022-07-24T00:22:33;20.50;96.20
27631;DHT22;15045;48.848;8.140;2022-07-24T00:24:59;20.40;96.00
27631;DHT22;15045;48.848;8.140;2022-07-24T00:27:24;20.50;96.40
27631;DHT22;15045;48.848;8.140;2022-07-24T00:29:50;20.40;96.70
27631;DHT22;15045;48.848;8.140;2022-07-24T00:32:16;20.30;96.60
27631;DHT22;15045;48.848;8.140;2022-07-24T00:34:41;20.20;96.80
27631;DHT22;15045;48.848;8.140;2022-07-24T00:37:07;20.20;97.00
27631;DHT22;15045;48.848;8.140;2022-07-24T00:39:33;20.10;97.10
27631;DHT22;15045;48.848;8.140;2022-07-24T00:41:58;20.00;97.10
27631;DHT22;15045;48.848;8.140;2022-07-24T00:44:24;20.00;96.90
27631;DHT22;15045;48.848;8.140;2022-07-24T00:46:50;19.90;97.20
27631;DHT22;15045;48.848;8.140;2022-07-24T00:49:17;19.80;97.60
27631;DHT22;15045;48.848;8.140;2022-07-24T00:51:45;19.70;97.90
27631;DHT22;15045;48.848;8.140;2022-07-24T00:54:12;19.60;97.90
27631;DHT22;15045;48.848;8.140;2022-07-24T00:56:40;19.60;98.60
27631;DHT22;15045;48.848;8.140;2022-07-24T00:59:06;19.50;98.80
27631;DHT22;15045;48.848;8.140;2022-07-24T01:01:31;19.40;98.90
27631;DHT22;15045;48.848;8.140;2022-07-24T01:03:58;19.40;98.90
27631;DHT22;15045;48.848;8.140;2022-07-24T01:06:24;19.40;99.20
27631;DHT22;15045;48.848;8.140;2022-07-24T01:08:50;19.30;99.20
27631;DHT22;15045;48.848;8.140;2022-07-24T01:11:15;19.20;99.70
27631;DHT22;15045;48.848;8.140;2022-07-24T01:13:42;19.00;99.90
27631;DHT22;15045;48.848;8.140;2022-07-24T01:16:09;19.00;99.90
27631;DHT22;15045;48.848;8.140;2022-07-24T01:18:35;19.00;99.90
27631;DHT22;15045;48.848;8.140;2022-07-24T01:21:02;19.00;99.90
27631;DHT22;15045;48.848;8.140;2022-07-24T01:23:27;18.80;99.90
27631;DHT22;15045;48.848;8.140;2022-07-24T01:25:53;18.80;99.90
27631;DHT22;15045;48.848;8.140;2022-07-24T01:28:18;18.80;99.90
27631;DHT22;15045;48.848;8.140;2022-07-24T01:30:45;18.70;99.90
27631;DHT22;15045;48.848;8.140;2022-07-24T01:33:10;18.70;99.90
27631;DHT22;15045;48.848;8.140;2022-07-24T01:35:36;18.60;99.90
27631;DHT22;15045;48.848;8.140;2022-07-24T01:38:02;18.60;99.90
27631;DHT22;15045;48.848;8.140;2022-07-24T01:40:27;18.60;99.90
27631;DHT22;15045;48.848;8.140;2022-07-24T01:42:53;18.50;99.90
27631;DHT22;15045;48.848;8.140;2022-07-24T01:45:19;18.40;99.90
27631;DHT22;15045;48.848;8.140;2022-07-24T01:47:45;18.40;99.90
27631;DHT22;15045;48.848;8.140;2022-07-24T01:50:12;18.40;99.90
27631;DHT22;15045;48.848;8.140;2022-07-24T01:52:38;18.30;99.90
27631;DHT22;15045;48.848;8.140;2022-07-24T01:55:04;18.20;99.90
27631;DHT22;15045;48.848;8.140;2022-07-24T01:57:31;18.10;99.90
27631;DHT22;15045;48.848;8.140;2022-07-24T01:59:58;18.10;99.90
27631;DHT22;15045;48.848;8.140;2022-07-24T02:02:24;18.20;99.90
27631;DHT22;15045;48.848;8.140;2022-07-24T02:04:50;18.10;99.90
27631;DHT22;15045;48.848;8.140;2022-07-24T02:07:15;18.10;99.90
27631;DHT22;15045;48.848;8.140;2022-07-24T02:09:41;18.10;99.90
27631;DHT22;15045;48.848;8.140;2022-07-24T02:12:06;18.10;99.90
27631;DHT22;15045;48.848;8.140;2022-07-24T02:14:32;18.10;99.90
27631;DHT22;15045;48.848;8.140;2022-07-24T02:16:58;18.10;99.90
27631;DHT22;15045;48.848;8.140;2022-07-24T02:19:23;18.10;99.90
27631;DHT22;15045;48.848;8.140;2022-07-24T02:21:49;18.10;99.90
27631;DHT22;15045;48.848;8.140;2022-07-24T02:24:15;18.10;99.90
27631;DHT22;15045;48.848;8.140;2022-07-24T02:26:41;18.10;99.90
27631;DHT22;15045;48.848;8.140;2022-07-24T02:29:06;18.00;99.90
27631;DHT22;15045;48.848;8.140;2022-07-24T02:31:32;17.90;99.90
27631;DHT22;15045;48.848;8.140;2022-07-24T02:33:57;17.80;99.90
27631;DHT22;15045;48.848;8.140;2022-07-24T02:36:23;17.80;99.90
27631;DHT22;15045;48.848;8.140;2022-07-24T02:43:40;17.60;99.90
27631;DHT22;15045;48.848;8.140;2022-07-24T02:46:06;17.60;99.90
27631;DHT22;15045;48.848;8.140;2022-07-24T02:48:32;17.50;99.90
27631;DHT22;15045;48.848;8.140;2022-07-24T02:50:58;17.50;99.90
27631;DHT22;15045;48.848;8.140;2022-07-24T02:53:24;17.50;99.90
27631;DHT22;15045;48.848;8.140;2022-07-24T02:58:15;17.50;99.90
27631;DHT22;15045;48.848;8.140;2022-07-24T03:03:07;17.50;99.90
27631;DHT22;15045;48.848;8.140;2022-07-24T03:05:33;17.50;99.90
27631;DHT22;15045;48.848;8.140;2022-07-24T03:07:58;17.50;99.90
27631;DHT22;15045;48.848;8.140;2022-07-24T03:10:24;17.50;99.90
27631;DHT22;15045;48.848;8.140;2022-07-24T03:12:50;17.50;99.90
27631;DHT22;15045;48.848;8.140;2022-07-24T03:17:53;17.50;99.90
27631;DHT22;15045;48.848;8.140;2022-07-24T03:20:20;18.30;99.90
27631;DHT22;15045;48.848;8.140;2022-07-24T03:22:46;17.50;99.90
27631;DHT22;15045;48.848;8.140;2022-07-24T03:25:13;17.40;99.90
27631;DHT22;15045;48.848;8.140;2022-07-24T03:27:38;17.40;99.90
27631;DHT22;15045;48.848;8.140;2022-07-24T03:30:05;17.30;99.90
27631;DHT22;15045;48.848;8.140;2022-07-24T03:32:31;17.30;99.90
27631;DHT22;15045;48.848;8.140;2022-07-24T03:34:57;17.20;99.90
27631;DHT22;15045;48.848;8.140;2022-07-24T03:37:22;17.20;99.90
27631;DHT22;15045;48.848;8.140;2022-07-24T03:39:48;17.20;99.90
27631;DHT22;15045;48.848;8.140;2022-07-24T03:42:14;17.20;99.90
27631;DHT22;15045;48.848;8.140;2022-07-24T03:44:39;17.20;99.90
27631;DHT22;15045;48.848;8.140;2022-07-24T03:47:05;17.20;99.90
27631;DHT22;15045;48.848;8.140;2022-07-24T03:49:31;17.20;99.90
27631;DHT22;15045;48.848;8.140;2022-07-24T03:51:56;17.80;99.90
27631;DHT22;15045;48.848;8.140;2022-07-24T03:54:22;17.10;99.90
27631;DHT22;15045;48.848;8.140;2022-07-24T03:56:48;17.20;99.90
27631;DHT22;15045;48.848;8.140;2022-07-24T03:59:13;17.20;99.90
27631;DHT22;15045;48.848;8.140;2022-07-24T04:01:39;19.00;99.90
27631;DHT22;15045;48.848;8.140;2022-07-24T04:04:05;17.20;99.90
27631;DHT22;15045;48.848;8.140;2022-07-24T04:06:31;17.20;99.90
27631;DHT22;15045;48.848;8.140;2022-07-24T04:08:58;17.10;99.90
27631;DHT22;15045;48.848;8.140;2022-07-24T04:11:24;17.20;99.90
27631;DHT22;15045;48.848;8.140;2022-07-24T04:13:50;17.30;99.90
27631;DHT22;15045;48.848;8.140;2022-07-24T04:16:15;17.30;99.90
27631;DHT22;15045;48.848;8.140;2022-07-24T04:21:07;17.20;99.90
27631;DHT22;15045;48.848;8.140;2022-07-24T04:23:33;17.20;99.90
27631;DHT22;15045;48.848;8.140;2022-07-24T04:25:59;17.20;99.90
27631;DHT22;15045;48.848;8.140;2022-07-24T04:28:25;17.30;99.90
27631;DHT22;15045;48.848;8.140;2022-07-24T04:30:50;17.30;99.90
27631;DHT22;15045;48.848;8.140;2022-07-24T04:33:16;17.40;99.90
27631;DHT22;15045;48.848;8.140;2022-07-24T04:35:41;17.40;99.90
27631;DHT22;15045;48.848;8.140;2022-07-24T04:38:07;17.50;99.90
27631;DHT22;15045;48.848;8.140;2022-07-24T04:40:32;17.50;99.90
27631;DHT22;15045;48.848;8.140;2022-07-24T04:42:58;17.60;99.90
27631;DHT22;15045;48.848;8.140;2022-07-24T04:45:23;17.60;99.90
27631;DHT22;15045;48.848;8.140;2022-07-24T04:47:49;17.70;99.90
27631;DHT22;15045;48.848;8.140;2022-07-24T04:50:14;17.70;99.90
27631;DHT22;15045;48.848;8.140;2022-07-24T04:52:41;17.80;99.90
27631;DHT22;15045;48.848;8.140;2022-07-24T04:55:07;17.90;99.90
27631;DHT22;15045;48.848;8.140;2022-07-24T04:57:33;18.00;99.90
27631;DHT22;15045;48.848;8.140;2022-07-24T04:59:58;18.20;99.90
27631;DHT22;15045;48.848;8.140;2022-07-24T05:02:24;18.20;99.90
27631;DHT22;15045;48.848;8.140;2022-07-24T05:04:49;18.30;99.90
27631;DHT22;15045;48.848;8.140;2022-07-24T05:07:15;18.40;99.90
27631;DHT22;15045;48.848;8.140;2022-07-24T05:09:40;18.50;99.90
27631;DHT22;15045;48.848;8.140;2022-07-24T05:12:06;18.60;99.90
27631;DHT22;15045;48.848;8.140;2022-07-24T05:14:32;18.80;99.90
27631;DHT22;15045;48.848;8.140;2022-07-24T05:16:57;18.80;99.90
27631;DHT22;15045;48.848;8.140;2022-07-24T05:19:23;19.70;99.90
27631;DHT22;15045;48.848;8.140;2022-07-24T05:24:14;19.30;99.90
27631;DHT22;15045;48.848;8.140;2022-07-24T05:26:40;19.40;99.90
27631;DHT22;15045;48.848;8.140;2022-07-24T05:29:05;19.60;99.90
27631;DHT22;15045;48.848;8.140;2022-07-24T05:31:32;19.70;99.90
27631;DHT22;15045;48.848;8.140;2022-07-24T05:33:58;19.90;99.90
27631;DHT22;15045;48.848;8.140;2022-07-24T05:36:24;20.00;99.90
27631;DHT22;15045;48.848;8.140;2022-07-24T05:38:50;20.20;99.90
27631;DHT22;15045;48.848;8.140;2022-07-24T05:41:16;20.30;99.90
27631;DHT22;15045;48.848;8.140;2022-07-24T05:43:42;20.50;99.90
27631;DHT22;15045;48.848;8.140;2022-07-24T05:46:08;20.60;99.90
27631;DHT22;15045;48.848;8.140;2022-07-24T05:48:33;20.70;99.90
27631;DHT22;15045;48.848;8.140;2022-07-24T05:50:59;20.80;99.90
27631;DHT22;15045;48.848;8.140;2022-07-24T05:55:51;21.00;99.90
27631;DHT22;15045;48.848;8.140;2022-07-24T05:58:17;21.20;99.90
27631;DHT22;15045;48.848;8.140;2022-07-24T06:00:43;21.30;99.90
27631;DHT22;15045;48.848;8.140;2022-07-24T06:03:08;21.40;99.90
27631;DHT22;15045;48.848;8.140;2022-07-24T06:05:34;21.50;99.90
27631;DHT22;15045;48.848;8.140;2022-07-24T06:07:59;21.60;99.90
27631;DHT22;15045;48.848;8.140;2022-07-24T06:10:25;21.70;99.90
27631;DHT22;15045;48.848;8.140;2022-07-24T06:12:50;21.80;99.90
27631;DHT22;15045;48.848;8.140;2022-07-24T06:15:16;22.00;99.90
27631;DHT22;15045;48.848;8.140;2022-07-24T06:17:42;22.00;99.90
27631;DHT22;15045;48.848;8.140;2022-07-24T06:20:09;22.10;99.90
27631;DHT22;15045;48.848;8.140;2022-07-24T06:22:38;22.20;99.90
27631;DHT22;15045;48.848;8.140;2022-07-24T06:25:04;22.10;99.90
27631;DHT22;15045;48.848;8.140;2022-07-24T06:27:30;22.20;99.90
27631;DHT22;15045;48.848;8.140;2022-07-24T06:29:55;22.30;99.90
27631;DHT22;15045;48.848;8.140;2022-07-24T06:32:21;22.30;99.90
27631;DHT22;15045;48.848;8.140;2022-07-24T06:34:46;22.40;99.90
27631;DHT22;15045;48.848;8.140;2022-07-24T06:37:12;22.50;99.90
27631;DHT22;15045;48.848;8.140;2022-07-24T06:39:37;22.50;99.90
27631;DHT22;15045;48.848;8.140;2022-07-24T06:42:03;22.60;99.90
27631;DHT22;15045;48.848;8.140;2022-07-24T06:44:29;22.90;99.90
27631;DHT22;15045;48.848;8.140;2022-07-24T06:46:54;22.90;99.90
27631;DHT22;15045;48.848;8.140;2022-07-24T06:49:20;23.00;99.90
27631;DHT22;15045;48.848;8.140;2022-07-24T06:51:45;23.00;99.90
27631;DHT22;15045;48.848;8.140;2022-07-24T06:54:13;23.20;99.90
27631;DHT22;15045;48.848;8.140;2022-07-24T06:56:38;23.10;99.90
27631;DHT22;15045;48.848;8.140;2022-07-24T06:59:04;23.20;99.90
27631;DHT22;15045;48.848;8.140;2022-07-24T07:01:30;23.40;99.90
27631;DHT22;15045;48.848;8.140;2022-07-24T07:03:55;23.60;99.90
27631;DHT22;15045;48.848;8.140;2022-07-24T07:06:21;23.50;99.90
27631;DHT22;15045;48.848;8.140;2022-07-24T07:08:46;23.60;99.90
27631;DHT22;15045;48.848;8.140;2022-07-24T07:11:12;23.70;99.90
27631;DHT22;15045;48.848;8.140;2022-07-24T07:13:37;23.70;99.90
27631;DHT22;15045;48.848;8.140;2022-07-24T07:16:03;23.80;99.90
27631;DHT22;15045;48.848;8.140;2022-07-24T07:18:29;23.90;99.90
27631;DHT22;15045;48.848;8.140;2022-07-24T07:20:54;23.90;99.70
27631;DHT22;15045;48.848;8.140;2022-07-24T07:23:24;23.90;99.60
27631;DHT22;15045;48.848;8.140;2022-07-24T07:25:52;23.90;98.90
27631;DHT22;15045;48.848;8.140;2022-07-24T07:28:18;23.90;99.60
27631;DHT22;15045;48.848;8.140;2022-07-24T07:30:44;24.10;99.70
27631;DHT22;15045;48.848;8.140;2022-07-24T07:33:09;24.30;99.10
27631;DHT22;15045;48.848;8.140;2022-07-24T07:35:35;24.40;98.20
27631;DHT22;15045;48.848;8.140;2022-07-24T07:38:01;24.50;97.90
27631;DHT22;15045;48.848;8.140;2022-07-24T07:40:26;24.50;97.70
27631;DHT22;15045;48.848;8.140;2022-07-24T07:42:52;24.50;97.90
27631;DHT22;15045;48.848;8.140;2022-07-24T07:45:17;24.80;97.60
27631;DHT22;15045;48.848;8.140;2022-07-24T07:47:43;24.80;96.90
27631;DHT22;15045;48.848;8.140;2022-07-24T07:50:09;24.80;96.90
27631;DHT22;15045;48.848;8.140;2022-07-24T07:52:35;24.70;97.40
27631;DHT22;15045;48.848;8.140;2022-07-24T07:55:01;24.80;96.60
27631;DHT22;15045;48.848;8.140;2022-07-24T07:57:26;24.70;97.40
27631;DHT22;15045;48.848;8.140;2022-07-24T07:59:52;24.80;97.10
27631;DHT22;15045;48.848;8.140;2022-07-24T08:02:17;25.00;96.70
27631;DHT22;15045;48.848;8.140;2022-07-24T08:04:43;25.20;95.80
27631;DHT22;15045;48.848;8.140;2022-07-24T08:07:08;25.20;95.90
27631;DHT22;15045;48.848;8.140;2022-07-24T08:09:34;25.30;95.40
27631;DHT22;15045;48.848;8.140;2022-07-24T08:11:59;25.30;94.90
27631;DHT22;15045;48.848;8.140;2022-07-24T08:14:25;25.40;95.20
27631;DHT22;15045;48.848;8.140;2022-07-24T08:16:50;25.40;95.40
27631;DHT22;15045;48.848;8.140;2022-07-24T08:19:16;25.60;95.00
27631;DHT22;15045;48.848;8.140;2022-07-24T08:21:41;25.80;94.60
27631;DHT22;15045;48.848;8.140;2022-07-24T08:24:07;25.80;93.50
27631;DHT22;15045;48.848;8.140;2022-07-24T08:26:33;25.80;93.90
27631;DHT22;15045;48.848;8.140;2022-07-24T08:28:58;25.90;92.50
27631;DHT22;15045;48.848;8.140;2022-07-24T08:31:25;26.00;92.80
27631;DHT22;15045;48.848;8.140;2022-07-24T08:33:51;26.10;92.70
27631;DHT22;15045;48.848;8.140;2022-07-24T08:36:16;26.10;92.70
27631;DHT22;15045;48.848;8.140;2022-07-24T08:38:42;26.00;92.30
27631;DHT22;15045;48.848;8.140;2022-07-24T08:41:08;26.00;93.20
27631;DHT22;15045;48.848;8.140;2022-07-24T08:43:34;26.00;92.20
27631;DHT22;15045;48.848;8.140;2022-07-24T08:46:00;25.90;92.30
27631;DHT22;15045;48.848;8.140;2022-07-24T08:48:26;26.10;92.30
27631;DHT22;15045;48.848;8.140;2022-07-24T08:50:52;26.30;90.90
27631;DHT22;15045;48.848;8.140;2022-07-24T08:53:22;26.40;91.20
27631;DHT22;15045;48.848;8.140;2022-07-24T08:55:49;26.40;90.20
27631;DHT22;15045;48.848;8.140;2022-07-24T08:58:15;26.40;90.30
27631;DHT22;15045;48.848;8.140;2022-07-24T09:00:40;26.50;90.00
27631;DHT22;15045;48.848;8.140;2022-07-24T09:03:07;26.70;90.10
27631;DHT22;15045;48.848;8.140;2022-07-24T09:05:32;26.90;89.40
27631;DHT22;15045;48.848;8.140;2022-07-24T09:08:10;26.90;88.50
27631;DHT22;15045;48.848;8.140;2022-07-24T09:10:37;26.90;84.80
27631;DHT22;15045;48.848;8.140;2022-07-24T09:13:16;27.00;85.80
27631;DHT22;15045;48.848;8.140;2022-07-24T09:15:47;27.10;85.30
27631;DHT22;15045;48.848;8.140;2022-07-24T09:18:33;27.20;81.70
27631;DHT22;15045;48.848;8.140;2022-07-24T09:21:11;27.20;81.20
27631;DHT22;15045;48.848;8.140;2022-07-24T09:23:37;27.20;80.90
27631;DHT22;15045;48.848;8.140;2022-07-24T09:26:03;27.20;81.50
27631;DHT22;15045;48.848;8.140;2022-07-24T09:28:29;27.30;81.80
27631;DHT22;15045;48.848;8.140;2022-07-24T09:31:01;27.50;83.10
27631;DHT22;15045;48.848;8.140;2022-07-24T09:33:35;27.60;79.00
27631;DHT22;15045;48.848;8.140;2022-07-24T09:36:14;27.60;79.90
27631;DHT22;15045;48.848;8.140;2022-07-24T09:38:50;27.70;80.70
27631;DHT22;15045;48.848;8.140;2022-07-24T09:41:25;27.70;80.60
27631;DHT22;15045;48.848;8.140;2022-07-24T09:44:01;28.50;81.00
27631;DHT22;15045;48.848;8.140;2022-07-24T09:46:28;27.90;78.90
27631;DHT22;15045;48.848;8.140;2022-07-24T09:48:56;27.90;80.00
27631;DHT22;15045;48.848;8.140;2022-07-24T09:51:26;28.10;80.10
27631;DHT22;15045;48.848;8.140;2022-07-24T09:53:54;28.30;79.20
27631;DHT22;15045;48.848;8.140;2022-07-24T09:56:21;28.40;78.00
27631;DHT22;15045;48.848;8.140;2022-07-24T09:58:50;28.40;75.20
27631;DHT22;15045;48.848;8.140;2022-07-24T10:01:19;28.40;75.10
27631;DHT22;15045;48.848;8.140;2022-07-24T10:03:46;28.50;75.10
27631;DHT22;15045;48.848;8.140;2022-07-24T10:06:13;28.40;73.90
27631;DHT22;15045;48.848;8.140;2022-07-24T10:08:41;28.40;72.40
27631;DHT22;15045;48.848;8.140;2022-07-24T10:11:08;28.40;72.50
27631;DHT22;15045;48.848;8.140;2022-07-24T10:13:34;28.40;72.40
27631;DHT22;15045;48.848;8.140;2022-07-24T10:21:18;28.50;70.30
27631;DHT22;15045;48.848;8.140;2022-07-24T10:29:13;28.60;68.70
27631;DHT22;15045;48.848;8.140;2022-07-24T10:31:41;28.70;69.40
27631;DHT22;15045;48.848;8.140;2022-07-24T10:40:39;29.10;68.50
27631;DHT22;15045;48.848;8.140;2022-07-24T10:43:07;29.00;67.80
27631;DHT22;15045;48.848;8.140;2022-07-24T10:45:38;29.10;68.50
27631;DHT22;15045;48.848;8.140;2022-07-24T10:53:28;29.50;67.60
27631;DHT22;15045;48.848;8.140;2022-07-24T10:56:23;29.60;66.40
27631;DHT22;15045;48.848;8.140;2022-07-24T11:03:57;29.50;65.30
27631;DHT22;15045;48.848;8.140;2022-07-24T11:09:09;29.70;64.80
27631;DHT22;15045;48.848;8.140;2022-07-24T11:11:41;29.60;63.60
27631;DHT22;15045;48.848;8.140;2022-07-24T11:14:07;29.70;64.70
27631;DHT22;15045;48.848;8.140;2022-07-24T11:16:34;29.70;63.70
27631;DHT22;15045;48.848;8.140;2022-07-24T11:21:39;30.00;63.50
27631;DHT22;15045;48.848;8.140;2022-07-24T11:24:15;30.10;62.10
27631;DHT22;15045;48.848;8.140;2022-07-24T11:31:55;30.10;62.10
27631;DHT22;15045;48.848;8.140;2022-07-24T11:34:20;30.30;62.40
27631;DHT22;15045;48.848;8.140;2022-07-24T11:36:49;30.30;62.20
27631;DHT22;15045;48.848;8.140;2022-07-24T11:39:16;30.60;63.70
27631;DHT22;15045;48.848;8.140;2022-07-24T11:41:49;30.70;62.00
27631;DHT22;15045;48.848;8.140;2022-07-24T11:44:23;30.70;59.70
27631;DHT22;15045;48.848;8.140;2022-07-24T11:46:49;30.60;59.40
27631;DHT22;15045;48.848;8.140;2022-07-24T11:49:14;30.70;61.00
27631;DHT22;15045;48.848;8.140;2022-07-24T11:51:50;30.60;60.60
27631;DHT22;15045;48.848;8.140;2022-07-24T11:54:24;30.80;59.70
27631;DHT22;15045;48.848;8.140;2022-07-24T11:56:51;30.80;60.10
27631;DHT22;15045;48.848;8.140;2022-07-24T11:59:22;30.90;59.60
27631;DHT22;15045;48.848;8.140;2022-07-24T12:01:47;31.10;60.40
27631;DHT22;15045;48.848;8.140;2022-07-24T12:04:21;31.30;57.00
27631;DHT22;15045;48.848;8.140;2022-07-24T12:06:47;31.30;57.60
27631;DHT22;15045;48.848;8.140;2022-07-24T12:09:13;31.10;56.60
27631;DHT22;15045;48.848;8.140;2022-07-24T12:11:38;31.00;56.60
27631;DHT22;15045;48.848;8.140;2022-07-24T12:14:06;31.30;58.00
27631;DHT22;15045;48.848;8.140;2022-07-24T12:16:37;31.20;57.90
27631;DHT22;15045;48.848;8.140;2022-07-24T12:19:18;31.20;57.70
27631;DHT22;15045;48.848;8.140;2022-07-24T12:21:45;31.10;56.60
27631;DHT22;15045;48.848;8.140;2022-07-24T12:24:11;30.90;56.60
27631;DHT22;15045;48.848;8.140;2022-07-24T12:29:16;31.10;57.20
27631;DHT22;15045;48.848;8.140;2022-07-24T12:31:42;31.20;56.70
27631;DHT22;15045;48.848;8.140;2022-07-24T12:34:07;31.20;56.90
27631;DHT22;15045;48.848;8.140;2022-07-24T12:36:33;31.20;57.60
27631;DHT22;15045;48.848;8.140;2022-07-24T12:38:59;31.40;57.20
27631;DHT22;15045;48.848;8.140;2022-07-24T12:41:27;31.60;57.90
27631;DHT22;15045;48.848;8.140;2022-07-24T12:46:20;32.10;57.30
27631;DHT22;15045;48.848;8.140;2022-07-24T12:49:00;32.00;57.00
27631;DHT22;15045;48.848;8.140;2022-07-24T12:51:25;31.90;57.20
27631;DHT22;15045;48.848;8.140;2022-07-24T12:53:55;32.00;57.50
27631;DHT22;15045;48.848;8.140;2022-07-24T12:56:22;32.10;57.00
27631;DHT22;15045;48.848;8.140;2022-07-24T13:01:22;31.90;56.60
27631;DHT22;15045;48.848;8.140;2022-07-24T13:03:57;32.10;56.30
27631;DHT22;15045;48.848;8.140;2022-07-24T13:06:34;32.00;54.80
27631;DHT22;15045;48.848;8.140;2022-07-24T13:09:00;32.00;55.90
27631;DHT22;15045;48.848;8.140;2022-07-24T13:11:25;32.10;57.00
27631;DHT22;15045;48.848;8.140;2022-07-24T13:13:51;32.40;57.50
27631;DHT22;15045;48.848;8.140;2022-07-24T13:16:16;32.40;56.10
27631;DHT22;15045;48.848;8.140;2022-07-24T13:18:42;32.50;56.70
27631;DHT22;15045;48.848;8.140;2022-07-24T13:21:07;32.30;54.80
27631;DHT22;15045;48.848;8.140;2022-07-24T13:23:33;32.30;56.10
27631;DHT22;15045;48.848;8.140;2022-07-24T13:25:58;32.60;57.00
27631;DHT22;15045;48.848;8.140;2022-07-24T13:28:24;32.90;56.60
27631;DHT22;15045;48.848;8.140;2022-07-24T13:30:49;33.00;55.50
27631;DHT22;15045;48.848;8.140;2022-07-24T13:33:15;33.10;54.90
27631;DHT22;15045;48.848;8.140;2022-07-24T13:35:40;33.20;55.00
27631;DHT22;15045;48.848;8.140;2022-07-24T13:38:06;33.20;52.80
27631;DHT22;15045;48.848;8.140;2022-07-24T13:40:32;33.10;53.60
27631;DHT22;15045;48.848;8.140;2022-07-24T13:42:57;33.00;53.60
27631;DHT22;15045;48.848;8.140;2022-07-24T13:45:23;33.00;53.20
27631;DHT22;15045;48.848;8.140;2022-07-24T13:47:48;33.00;54.90
27631;DHT22;15045;48.848;8.140;2022-07-24T13:50:14;33.00;53.70
27631;DHT22;15045;48.848;8.140;2022-07-24T13:52:39;33.30;53.90
27631;DHT22;15045;48.848;8.140;2022-07-24T13:55:05;33.20;54.30
27631;DHT22;15045;48.848;8.140;2022-07-24T13:57:31;33.20;53.80
27631;DHT22;15045;48.848;8.140;2022-07-24T13:59:56;33.10;52.50
27631;DHT22;15045;48.848;8.140;2022-07-24T14:02:22;33.00;53.40
27631;DHT22;15045;48.848;8.140;2022-07-24T14:04:47;33.10;52.80
27631;DHT22;15045;48.848;8.140;2022-07-24T14:07:13;33.50;53.60
27631;DHT22;15045;48.848;8.140;2022-07-24T14:09:39;33.70;53.40
27631;DHT22;15045;48.848;8.140;2022-07-24T14:12:05;33.50;52.30
27631;DHT22;15045;48.848;8.140;2022-07-24T14:14:31;33.70;53.70
27631;DHT22;15045;48.848;8.140;2022-07-24T14:16:56;34.20;52.90
27631;DHT22;15045;48.848;8.140;2022-07-24T14:19:22;34.10;51.60
27631;DHT22;15045;48.848;8.140;2022-07-24T14:21:48;34.10;52.10
27631;DHT22;15045;48.848;8.140;2022-07-24T14:24:15;33.80;51.10
27631;DHT22;15045;48.848;8.140;2022-07-24T14:26:42;33.80;51.40
27631;DHT22;15045;48.848;8.140;2022-07-24T14:29:07;33.90;52.00
27631;DHT22;15045;48.848;8.140;2022-07-24T14:31:33;34.30;51.90
27631;DHT22;15045;48.848;8.140;2022-07-24T14:33:58;34.60;51.00
27631;DHT22;15045;48.848;8.140;2022-07-24T14:36:26;34.50;50.70
27631;DHT22;15045;48.848;8.140;2022-07-24T14:38:52;34.80;49.50
27631;DHT22;15045;48.848;8.140;2022-07-24T14:41:18;36.50;48.30
27631;DHT22;15045;48.848;8.140;2022-07-24T14:43:43;41.20;43.90
27631;DHT22;15045;48.848;8.140;2022-07-24T14:46:09;44.80;38.70
27631;DHT22;15045;48.848;8.140;2022-07-24T14:48:34;47.30;35.90
27631;DHT22;15045;48.848;8.140;2022-07-24T14:51:00;48.30;33.70
27631;DHT22;15045;48.848;8.140;2022-07-24T14:53:25;48.90;32.60
27631;DHT22;15045;48.848;8.140;2022-07-24T14:55:51;51.20;30.50
27631;DHT22;15045;48.848;8.140;2022-07-24T14:58:16;52.40;28.50
27631;DHT22;15045;48.848;8.140;2022-07-24T15:00:42;53.10;28.10
27631;DHT22;15045;48.848;8.140;2022-07-24T15:03:07;55.80;27.20
27631;DHT22;15045;48.848;8.140;2022-07-24T15:05:33;58.00;26.60
27631;DHT22;15045;48.848;8.140;2022-07-24T15:07:58;59.60;25.50
27631;DHT22;15045;48.848;8.140;2022-07-24T15:10:24;58.20;23.80
27631;DHT22;15045;48.848;8.140;2022-07-24T15:12:49;58.80;24.00
27631;DHT22;15045;48.848;8.140;2022-07-24T15:15:15;58.60;24.10
27631;DHT22;15045;48.848;8.140;2022-07-24T15:17:40;58.40;23.20
27631;DHT22;15045;48.848;8.140;2022-07-24T15:20:06;58.30;22.70
27631;DHT22;15045;48.848;8.140;2022-07-24T15:22:32;59.90;22.90
27631;DHT22;15045;48.848;8.140;2022-07-24T15:24:57;59.60;22.80
27631;DHT22;15045;48.848;8.140;2022-07-24T15:27:23;61.70;23.10
27631;DHT22;15045;48.848;8.140;2022-07-24T15:29:48;61.90;22.10
27631;DHT22;15045;48.848;8.140;2022-07-24T15:32:14;62.00;22.20
27631;DHT22;15045;48.848;8.140;2022-07-24T15:34:40;62.30;22.10
27631;DHT22;15045;48.848;8.140;2022-07-24T15:37:05;62.00;21.30
27631;DHT22;15045;48.848;8.140;2022-07-24T15:39:31;61.00;21.50
27631;DHT22;15045;48.848;8.140;2022-07-24T15:41:56;61.50;22.00
27631;DHT22;15045;48.848;8.140;2022-07-24T15:44:22;62.70;22.10
27631;DHT22;15045;48.848;8.140;2022-07-24T15:46:47;63.90;21.00
27631;DHT22;15045;48.848;8.140;2022-07-24T15:49:13;63.60;21.10
27631;DHT22;15045;48.848;8.140;2022-07-24T15:51:38;63.00;20.60
27631;DHT22;15045;48.848;8.140;2022-07-24T15:54:04;62.60;21.10
27631;DHT22;15045;48.848;8.140;2022-07-24T15:56:30;62.50;20.60
27631;DHT22;15045;48.848;8.140;2022-07-24T15:58:56;62.10;21.00
27631;DHT22;15045;48.848;8.140;2022-07-24T16:01:21;63.00;21.30
27631;DHT22;15045;48.848;8.140;2022-07-24T16:03:47;62.50;21.00
27631;DHT22;15045;48.848;8.140;2022-07-24T16:06:12;62.10;20.60
27631;DHT22;15045;48.848;8.140;2022-07-24T16:08:38;61.10;21.00
27631;DHT22;15045;48.848;8.140;2022-07-24T16:11:03;60.40;21.30
27631;DHT22;15045;48.848;8.140;2022-07-24T16:13:29;60.30;21.40
27631;DHT22;15045;48.848;8.140;2022-07-24T16:15:54;60.00;21.30
27631;DHT22;15045;48.848;8.140;2022-07-24T16:18:20;60.00;21.60
27631;DHT22;15045;48.848;8.140;2022-07-24T16:20:46;60.60;21.20
27631;DHT22;15045;48.848;8.140;2022-07-24T16:23:11;60.70;21.60
27631;DHT22;15045;48.848;8.140;2022-07-24T16:25:37;60.20;21.50
27631;DHT22;15045;48.848;8.140;2022-07-24T16:28:03;61.00;21.70
27631;DHT22;15045;48.848;8.140;2022-07-24T16:30:28;59.50;21.50